createdAt,value
2019-03-02T00:00:03.524Z,39.56
2019-03-02T00:00:38.633Z,39.66
2019-03-02T00:01:14.506Z,39.56
2019-03-02T00:01:49.565Z,39.66
2019-03-02T00:02:25.462Z,39.76
2019-03-02T00:03:00.721Z,39.56
2019-03-02T00:03:35.970Z,39.56
2019-03-02T00:04:11.087Z,39.37
2019-03-02T00:04:49.234Z,39.47
2019-03-02T00:05:25.194Z,39.66
2019-03-02T00:06:02.148Z,39.66
2019-03-02T00:06:36.589Z,39.86
2019-03-02T00:07:12.269Z,39.76
2019-03-02T00:07:48.835Z,39.76
2019-03-02T00:08:25.140Z,39.28
2019-03-02T00:09:00.977Z,39.86
2019-03-02T00:09:35.404Z,39.56
2019-03-02T00:10:10.952Z,40.05
2019-03-02T00:10:45.796Z,39.66
2019-03-02T00:11:20.652Z,39.66
2019-03-02T00:11:57.489Z,39.86
2019-03-02T00:12:32.937Z,39.86
2019-03-02T00:13:08.691Z,39.86
2019-03-02T00:13:44.662Z,39.86
2019-03-02T00:14:19.951Z,39.86
2019-03-02T00:14:55.021Z,39.86
2019-03-02T00:15:31.880Z,39.76
2019-03-02T00:16:08.504Z,39.49
2019-03-02T00:16:44.201Z,39.76
2019-03-02T00:17:20.179Z,39.56
2019-03-02T00:17:55.134Z,39.76
2019-03-02T00:18:29.997Z,39.76
2019-03-02T00:19:06.603Z,39.76
2019-03-02T00:19:42.605Z,39.47
2019-03-02T00:20:18.037Z,39.76
2019-03-02T00:20:56.360Z,39.86
2019-03-02T00:21:32.550Z,39.86
2019-03-02T00:22:08.018Z,39.76
2019-03-02T00:22:44.905Z,39.86
2019-03-02T00:23:19.768Z,39.47
2019-03-02T00:23:55.283Z,39.76
2019-03-02T00:24:27.305Z,39.18
2019-03-02T00:24:59.701Z,39.68
2019-03-02T00:25:35.039Z,39.76
2019-03-02T00:26:11.435Z,39.76
2019-03-02T00:26:47.240Z,39.86
2019-03-02T00:27:22.154Z,39.37
2019-03-02T00:27:58.102Z,39.76
2019-03-02T00:28:36.388Z,39.76
2019-03-02T00:29:11.958Z,39.76
2019-03-02T00:29:47.158Z,39.86
2019-03-02T00:30:22.480Z,39.66
2019-03-02T00:30:57.762Z,39.66
2019-03-02T00:31:34.146Z,39.76
2019-03-02T00:32:10.692Z,39.78
2019-03-02T00:32:45.997Z,39.66
2019-03-02T00:33:21.060Z,39.66
2019-03-02T00:33:56.595Z,39.66
2019-03-02T00:34:32.933Z,39.18
2019-03-02T00:35:08.224Z,39.76
2019-03-02T00:35:44.803Z,39.28
2019-03-02T00:36:20.190Z,39.18
2019-03-02T00:36:58.447Z,39.56
2019-03-02T00:37:33.747Z,39.18
2019-03-02T00:38:10.069Z,39.18
2019-03-02T00:38:44.651Z,39.59
2019-03-02T00:39:19.967Z,39.56
2019-03-02T00:39:55.672Z,39.47
2019-03-02T00:40:31.608Z,39.2
2019-03-02T00:41:07.831Z,39.76
2019-03-02T00:41:43.058Z,39.18
2019-03-02T00:42:18.204Z,39.76
2019-03-02T00:42:52.820Z,39.56
2019-03-02T00:43:28.029Z,39.56
2019-03-02T00:44:04.808Z,39.66
2019-03-02T00:44:39.395Z,39.56
2019-03-02T00:45:15.467Z,39.78
2019-03-02T00:45:49.806Z,39.86
2019-03-02T00:46:24.824Z,39.78
2019-03-02T00:47:00.512Z,39.86
2019-03-02T00:47:36.290Z,39.18
2019-03-02T00:48:12.416Z,39.86
2019-03-02T00:48:47.664Z,39.76
2019-03-02T00:49:22.767Z,39.76
2019-03-02T00:50:00.815Z,39.76
2019-03-02T00:50:37.340Z,39.76
2019-03-02T00:51:12.090Z,39.76
2019-03-02T00:51:47.390Z,39.76
2019-03-02T00:52:24.300Z,39.76
2019-03-02T00:53:00.104Z,39.18
2019-03-02T00:53:36.652Z,39.76
2019-03-02T00:54:12.530Z,39.56
2019-03-02T00:54:58.062Z,39.66
2019-03-02T00:55:32.647Z,39.18
2019-03-02T00:56:09.119Z,39.47
2019-03-02T00:56:43.709Z,39.47
2019-03-02T00:57:19.697Z,39.66
2019-03-02T00:57:54.527Z,39.56
2019-03-02T00:58:29.877Z,39.56
2019-03-02T00:59:04.810Z,39.49
2019-03-02T00:59:40.350Z,39.28
2019-03-02T01:00:16.377Z,39.47
2019-03-02T01:00:53.576Z,39.66
2019-03-02T01:01:29.888Z,39.47
2019-03-02T01:02:05.814Z,39.28
2019-03-02T01:02:40.474Z,39.66
2019-03-02T01:03:16.891Z,39.56
2019-03-02T01:03:51.494Z,39.47
2019-03-02T01:04:26.885Z,39.76
2019-03-02T01:05:03.062Z,39.47
2019-03-02T01:05:37.194Z,39.47
2019-03-02T01:06:13.795Z,39.56
2019-03-02T01:06:50.017Z,39.47
2019-03-02T01:07:24.549Z,39.56
2019-03-02T01:08:00.982Z,39.28
2019-03-02T01:08:35.730Z,39.66
2019-03-02T01:09:11.647Z,39.56
2019-03-02T01:09:47.370Z,39.47
2019-03-02T01:10:23.639Z,39.47
2019-03-02T01:10:59.019Z,39.37
2019-03-02T01:11:34.314Z,39.37
2019-03-02T01:12:09.869Z,39.56
2019-03-02T01:12:45.267Z,39.09
2019-03-02T01:13:22.924Z,39.28
2019-03-02T01:13:57.644Z,39.47
2019-03-02T01:14:33.295Z,39.37
2019-03-02T01:15:09.257Z,39.09
2019-03-02T01:15:44.883Z,39.47
2019-03-02T01:16:19.918Z,39.66
2019-03-02T01:16:55.923Z,39.37
2019-03-02T01:17:31.849Z,39.09
2019-03-02T01:18:06.561Z,39.09
2019-03-02T01:18:43.492Z,39.18
2019-03-02T01:19:18.454Z,39.09
2019-03-02T01:19:53.899Z,39.09
2019-03-02T01:20:30.155Z,38.99
2019-03-02T01:21:05.384Z,38.99
2019-03-02T01:21:41.211Z,39.18
2019-03-02T01:22:17.354Z,39.47
2019-03-02T01:22:52.772Z,39.47
2019-03-02T01:23:29.004Z,39.37
2019-03-02T01:24:04.521Z,39.18
2019-03-02T01:24:39.724Z,39.66
2019-03-02T01:25:14.408Z,39.09
2019-03-02T01:25:49.736Z,38.99
2019-03-02T01:26:24.791Z,39.09
2019-03-02T01:27:00.588Z,39.18
2019-03-02T01:27:35.791Z,38.99
2019-03-02T01:28:10.660Z,39.09
2019-03-02T01:28:45.379Z,39.09
2019-03-02T01:29:20.383Z,39.47
2019-03-02T01:29:55.504Z,39.47
2019-03-02T01:30:30.922Z,39.09
2019-03-02T01:31:06.067Z,38.99
2019-03-02T01:31:41.757Z,39.28
2019-03-02T01:32:17.466Z,39.28
2019-03-02T01:32:53.676Z,39.18
2019-03-02T01:33:29.342Z,39.28
2019-03-02T01:34:08.260Z,39.18
2019-03-02T01:34:43.499Z,39.18
2019-03-02T01:35:19.995Z,39.18
2019-03-02T01:35:56.820Z,39.18
2019-03-02T01:36:33.449Z,39.09
2019-03-02T01:37:08.989Z,39.18
2019-03-02T01:37:45.321Z,39.18
2019-03-02T01:38:19.534Z,39.18
2019-03-02T01:38:54.929Z,39.18
2019-03-02T01:39:30.144Z,39.47
2019-03-02T01:40:06.258Z,39.37
2019-03-02T01:40:41.642Z,39.28
2019-03-02T01:41:17.656Z,39.18
2019-03-02T01:41:54.790Z,39.09
2019-03-02T01:42:30.832Z,39.28
2019-03-02T01:43:05.765Z,39.18
2019-03-02T01:43:41.740Z,39.18
2019-03-02T01:44:17.508Z,39.37
2019-03-02T01:44:52.566Z,39.18
2019-03-02T01:45:28.968Z,39.39
2019-03-02T01:46:04.620Z,39.37
2019-03-02T01:46:40.838Z,39.28
2019-03-02T01:47:17.018Z,39.28
2019-03-02T01:47:52.124Z,39.18
2019-03-02T01:48:27.885Z,39.28
2019-03-02T01:49:02.467Z,39.37
2019-03-02T01:49:37.743Z,39.28
2019-03-02T01:50:12.732Z,39.28
2019-03-02T01:50:48.855Z,39.18
2019-03-02T01:51:23.906Z,39.28
2019-03-02T01:51:59.103Z,39.18
2019-03-02T01:52:35.274Z,39.18
2019-03-02T01:53:10.795Z,39.18
2019-03-02T01:53:46.891Z,39.28
2019-03-02T01:54:22.059Z,39.29
2019-03-02T01:54:56.656Z,39.28
2019-03-02T01:55:32.120Z,39.28
2019-03-02T01:56:07.043Z,39.28
2019-03-02T01:56:42.619Z,39.28
2019-03-02T01:57:17.967Z,39.28
2019-03-02T01:57:53.191Z,39.28
2019-03-02T01:58:29.012Z,39.28
2019-03-02T01:59:04.839Z,39.28
2019-03-02T01:59:39.929Z,39.29
2019-03-02T02:00:14.562Z,39.18
2019-03-02T02:00:50.009Z,39.29
2019-03-02T02:01:25.887Z,39.2
2019-03-02T02:02:01.447Z,39.28
2019-03-02T02:02:37.238Z,39.18
2019-03-02T02:03:13.007Z,39.09
2019-03-02T02:03:48.020Z,39.28
2019-03-02T02:04:23.833Z,39.18
2019-03-02T02:04:58.398Z,38.99
2019-03-02T02:05:33.106Z,39.18
2019-03-02T02:06:08.741Z,39.28
2019-03-02T02:06:43.991Z,39.29
2019-03-02T02:07:19.345Z,39.28
2019-03-02T02:07:55.455Z,39.18
2019-03-02T02:08:30.700Z,39.28
2019-03-02T02:09:06.813Z,39.28
2019-03-02T02:09:41.444Z,39.28
2019-03-02T02:10:13.579Z,39.28
2019-03-02T02:10:45.736Z,39.28
2019-03-02T02:11:18.986Z,39.28
2019-03-02T02:11:54.588Z,39.28
2019-03-02T02:12:29.689Z,39.29
2019-03-02T02:13:06.117Z,39.28
2019-03-02T02:13:42.791Z,39.29
2019-03-02T02:14:19.864Z,38.99
2019-03-02T02:14:55.308Z,39.28
2019-03-02T02:15:30.325Z,39.28
2019-03-02T02:16:06.819Z,39.18
2019-03-02T02:16:41.739Z,39.01
2019-03-02T02:17:17.510Z,39.28
2019-03-02T02:17:54.090Z,38.99
2019-03-02T02:18:28.814Z,39.18
2019-03-02T02:19:03.353Z,38.99
2019-03-02T02:19:39.626Z,39.18
2019-03-02T02:20:15.460Z,39.18
2019-03-02T02:20:51.623Z,39.28
2019-03-02T02:21:26.521Z,39.2
2019-03-02T02:22:03.021Z,39.29
2019-03-02T02:22:38.691Z,39.29
2019-03-02T02:23:14.142Z,39.18
2019-03-02T02:23:50.824Z,39.28
2019-03-02T02:24:25.772Z,39.37
2019-03-02T02:25:02.113Z,39.29
2019-03-02T02:25:36.532Z,39.29
2019-03-02T02:26:12.529Z,39.29
2019-03-02T02:26:47.721Z,39.37
2019-03-02T02:27:23.623Z,39.09
2019-03-02T02:27:59.022Z,39.28
2019-03-02T02:28:33.458Z,39.29
2019-03-02T02:29:09.545Z,39.37
2019-03-02T02:29:44.390Z,39.28
2019-03-02T02:30:26.227Z,39.28
2019-03-02T02:31:07.626Z,39.18
2019-03-02T02:31:46.398Z,38.99
2019-03-02T02:32:25.383Z,39.2
2019-03-02T02:33:05.894Z,38.99
2019-03-02T02:33:44.566Z,39.18
2019-03-02T02:34:23.660Z,39.28
2019-03-02T02:35:02.468Z,39.28
2019-03-02T02:35:41.649Z,39.29
2019-03-02T02:36:20.256Z,39.28
2019-03-02T02:36:59.721Z,39.01
2019-03-02T02:37:38.304Z,39.18
2019-03-02T02:38:17.441Z,39.37
2019-03-02T02:38:55.783Z,39.18
2019-03-02T02:39:33.410Z,39.28
2019-03-02T02:40:12.440Z,39.37
2019-03-02T02:40:45.615Z,39.28
2019-03-02T02:41:24.935Z,39.39
2019-03-02T02:42:06.633Z,38.99
2019-03-02T02:42:43.134Z,39.37
2019-03-02T02:43:22.277Z,39.37
2019-03-02T02:44:00.404Z,39.39
2019-03-02T02:44:37.517Z,39.11
2019-03-02T02:45:16.560Z,39.39
2019-03-02T02:45:54.963Z,39.11
2019-03-02T02:46:34.213Z,39.29
2019-03-02T02:47:12.743Z,39.37
2019-03-02T02:47:53.822Z,39.37
2019-03-02T02:48:32.725Z,39.37
2019-03-02T02:49:10.069Z,39.39
2019-03-02T02:49:49.486Z,39.39
2019-03-02T02:50:31.398Z,39.68
2019-03-02T02:51:11.648Z,39.39
2019-03-02T02:51:50.393Z,39.49
2019-03-02T02:52:29.487Z,39.68
2019-03-02T02:53:08.365Z,39.2
2019-03-02T02:53:46.983Z,39.37
2019-03-02T02:54:24.592Z,39.39
2019-03-02T02:55:02.679Z,39.09
2019-03-02T02:55:42.218Z,38.99
2019-03-02T02:56:21.030Z,39.29
2019-03-02T02:56:58.573Z,39.28
2019-03-02T02:57:38.216Z,39.59
2019-03-02T02:58:17.430Z,38.99
2019-03-02T02:59:00.290Z,39.28
2019-03-02T02:59:38.436Z,39.28
2019-03-02T03:00:17.635Z,39.28
2019-03-02T03:00:56.535Z,39.28
2019-03-02T03:01:34.968Z,38.99
2019-03-02T03:02:12.231Z,39.09
2019-03-02T03:02:44.463Z,38.99
2019-03-02T03:03:22.545Z,39.11
2019-03-02T03:04:00.745Z,39.09
2019-03-02T03:04:38.173Z,39.28
2019-03-02T03:05:17.250Z,39.09
2019-03-02T03:05:55.588Z,39.18
2019-03-02T03:06:32.516Z,39.28
2019-03-02T03:07:13.810Z,39.47
2019-03-02T03:07:55.317Z,39.28
2019-03-02T03:08:33.171Z,39.28
2019-03-02T03:09:11.460Z,38.81
2019-03-02T03:09:49.383Z,39.28
2019-03-02T03:10:27.696Z,39.18
2019-03-02T03:11:08.006Z,39.18
2019-03-02T03:11:45.703Z,38.99
2019-03-02T03:12:22.642Z,39.28
2019-03-02T03:13:03.813Z,39.01
2019-03-02T03:13:42.005Z,39.09
2019-03-02T03:14:19.775Z,38.99
2019-03-02T03:14:58.318Z,39.18
2019-03-02T03:15:38.717Z,39.01
2019-03-02T03:16:16.822Z,38.89
2019-03-02T03:16:55.557Z,39.29
2019-03-02T03:17:32.356Z,39.18
2019-03-02T03:18:14.376Z,39.18
2019-03-02T03:18:53.543Z,39.01
2019-03-02T03:19:30.931Z,38.99
2019-03-02T03:20:10.882Z,38.99
2019-03-02T03:20:50.549Z,38.91
2019-03-02T03:21:29.478Z,38.81
2019-03-02T03:22:07.760Z,38.99
2019-03-02T03:22:45.961Z,39.2
2019-03-02T03:23:26.142Z,38.89
2019-03-02T03:24:05.243Z,38.79
2019-03-02T03:24:41.916Z,38.89
2019-03-02T03:25:17.975Z,38.79
2019-03-02T03:25:58.531Z,38.79
2019-03-02T03:26:35.179Z,38.89
2019-03-02T03:27:13.188Z,39.28
2019-03-02T03:27:51.715Z,39.18
2019-03-02T03:28:32.153Z,38.81
2019-03-02T03:29:09.512Z,39.01
2019-03-02T03:29:49.276Z,38.91
2019-03-02T03:30:38.213Z,39.28
2019-03-02T03:31:25.567Z,38.89
2019-03-02T03:32:12.471Z,39.28
2019-03-02T03:32:58.805Z,38.89
2019-03-02T03:33:46.161Z,38.89
2019-03-02T03:34:32.404Z,38.91
2019-03-02T03:35:19.299Z,39.37
2019-03-02T03:35:57.686Z,39.28
2019-03-02T03:36:33.895Z,39.09
2019-03-02T03:37:12.994Z,39.09
2019-03-02T03:37:52.585Z,39.56
2019-03-02T03:38:29.609Z,39.18
2019-03-02T03:39:07.115Z,39.09
2019-03-02T03:39:48.106Z,38.91
2019-03-02T03:40:26.985Z,39.09
2019-03-02T03:41:06.503Z,39.09
2019-03-02T03:41:44.935Z,39.09
2019-03-02T03:42:24.634Z,38.89
2019-03-02T03:43:04.755Z,38.89
2019-03-02T03:43:44.251Z,38.91
2019-03-02T03:44:27.094Z,38.89
2019-03-02T03:45:04.151Z,39.11
2019-03-02T03:45:44.892Z,39.28
2019-03-02T03:46:22.655Z,39.28
2019-03-02T03:47:00.595Z,39.28
2019-03-02T03:47:40.381Z,39.28
2019-03-02T03:48:17.747Z,39.18
2019-03-02T03:48:57.633Z,39.28
2019-03-02T03:49:34.149Z,39.18
2019-03-02T03:50:15.379Z,39.29
2019-03-02T03:50:52.280Z,39.09
2019-03-02T03:51:31.799Z,39.18
2019-03-02T03:52:10.946Z,39.28
2019-03-02T03:52:48.806Z,39.09
2019-03-02T03:53:29.745Z,39.29
2019-03-02T03:54:09.086Z,39.2
2019-03-02T03:54:46.454Z,39.29
2019-03-02T03:55:27.286Z,39.18
2019-03-02T03:56:05.473Z,39.28
2019-03-02T03:56:42.435Z,39.2
2019-03-02T03:57:21.479Z,39.18
2019-03-02T03:58:02.430Z,39.29
2019-03-02T03:58:39.774Z,39.09
2019-03-02T03:59:20.475Z,39.09
2019-03-02T04:00:00.193Z,39.09
2019-03-02T04:00:38.550Z,39.09
2019-03-02T04:01:19.089Z,39.09
2019-03-02T04:01:56.708Z,39.09
2019-03-02T04:02:35.305Z,39.2
2019-03-02T04:03:13.595Z,39.2
2019-03-02T04:03:52.940Z,39.09
2019-03-02T04:04:30.578Z,39.11
2019-03-02T04:05:09.783Z,39.2
2019-03-02T04:05:48.554Z,39.29
2019-03-02T04:06:29.121Z,39.11
2019-03-02T04:07:07.717Z,39.11
2019-03-02T04:07:51.397Z,39.11
2019-03-02T04:08:29.875Z,39.01
2019-03-02T04:09:09.722Z,39.11
2019-03-02T04:09:48.179Z,39.09
2019-03-02T04:10:27.742Z,39.01
2019-03-02T04:11:04.460Z,39.11
2019-03-02T04:11:43.341Z,39.18
2019-03-02T04:12:25.674Z,39.11
2019-03-02T04:13:06.265Z,39.01
2019-03-02T04:13:46.535Z,39.01
2019-03-02T04:14:23.255Z,39.01
2019-03-02T04:15:02.722Z,39.11
2019-03-02T04:15:43.441Z,39.11
2019-03-02T04:16:22.308Z,39.11
2019-03-02T04:17:01.641Z,39.01
2019-03-02T04:17:38.972Z,39.2
2019-03-02T04:18:17.584Z,39.11
2019-03-02T04:18:56.977Z,39.01
2019-03-02T04:19:35.897Z,39.01
2019-03-02T04:20:13.620Z,39.11
2019-03-02T04:20:50.850Z,38.91
2019-03-02T04:21:27.959Z,39.11
2019-03-02T04:22:06.689Z,39.11
2019-03-02T04:22:44.585Z,39.11
2019-03-02T04:23:22.227Z,39.01
2019-03-02T04:24:01.102Z,39.11
2019-03-02T04:24:39.508Z,39.01
2019-03-02T04:25:19.345Z,38.91
2019-03-02T04:25:56.509Z,38.91
2019-03-02T04:26:38.043Z,39.11
2019-03-02T04:27:17.065Z,39.2
2019-03-02T04:27:56.034Z,39.01
2019-03-02T04:28:32.455Z,39.01
2019-03-02T04:29:11.326Z,38.99
2019-03-02T04:29:53.903Z,39.01
2019-03-02T04:30:32.861Z,38.81
2019-03-02T04:31:10.520Z,39.01
2019-03-02T04:31:50.250Z,39.2
2019-03-02T04:32:28.946Z,39.11
2019-03-02T04:33:05.813Z,38.91
2019-03-02T04:33:44.666Z,39.11
2019-03-02T04:34:22.915Z,39.01
2019-03-02T04:34:58.818Z,39.11
2019-03-02T04:35:35.165Z,39.01
2019-03-02T04:36:11.469Z,39.01
2019-03-02T04:36:49.139Z,39.01
2019-03-02T04:37:24.886Z,39.01
2019-03-02T04:38:02.219Z,39.11
2019-03-02T04:38:38.127Z,39.01
2019-03-02T04:39:15.002Z,39.11
2019-03-02T04:39:51.104Z,39.01
2019-03-02T04:40:27.641Z,39.01
2019-03-02T04:41:04.845Z,39.01
2019-03-02T04:41:40.800Z,39.01
2019-03-02T04:42:15.438Z,39.11
2019-03-02T04:42:51.687Z,39.01
2019-03-02T04:43:23.655Z,39.01
2019-03-02T04:43:55.630Z,39.11
2019-03-02T04:44:30.823Z,39.01
2019-03-02T04:45:05.916Z,39.11
2019-03-02T04:45:40.921Z,39.01
2019-03-02T04:46:16.699Z,39.01
2019-03-02T04:46:52.412Z,39.01
2019-03-02T04:47:27.548Z,39.11
2019-03-02T04:48:03.234Z,39.2
2019-03-02T04:48:40.066Z,39.11
2019-03-02T04:49:15.563Z,39.01
2019-03-02T04:49:52.382Z,39.11
2019-03-02T04:50:28.417Z,39.11
2019-03-02T04:51:03.507Z,39.11
2019-03-02T04:51:40.115Z,39.01
2019-03-02T04:52:15.410Z,39.11
2019-03-02T04:52:51.218Z,39.11
2019-03-02T04:53:25.942Z,39.11
2019-03-02T04:54:01.733Z,39.11
2019-03-02T04:54:38.591Z,39.11
2019-03-02T04:55:14.780Z,39.11
2019-03-02T04:55:49.412Z,39.01
2019-03-02T04:56:25.117Z,39.11
2019-03-02T04:56:59.834Z,39.01
2019-03-02T04:57:36.153Z,39.11
2019-03-02T04:58:12.921Z,39.11
2019-03-02T04:58:47.833Z,39.01
2019-03-02T04:59:23.010Z,39.01
2019-03-02T04:59:57.665Z,39.11
2019-03-02T05:00:33.065Z,39.11
2019-03-02T05:01:07.862Z,39.11
2019-03-02T05:01:46.184Z,39.01
2019-03-02T05:02:20.514Z,39.11
2019-03-02T05:02:56.143Z,39.01
2019-03-02T05:03:28.192Z,39.01
2019-03-02T05:04:00.171Z,39.01
2019-03-02T05:04:33.158Z,39.01
2019-03-02T05:05:09.420Z,39.11
2019-03-02T05:05:44.240Z,39.11
2019-03-02T05:06:19.808Z,39.01
2019-03-02T05:06:55.703Z,38.91
2019-03-02T05:07:30.975Z,39.01
2019-03-02T05:08:06.317Z,39.01
2019-03-02T05:08:42.406Z,39.11
2019-03-02T05:09:18.206Z,39.11
2019-03-02T05:09:52.993Z,39.01
2019-03-02T05:10:29.834Z,39.01
2019-03-02T05:11:04.512Z,39.11
2019-03-02T05:11:40.735Z,39.01
2019-03-02T05:12:15.523Z,39.01
2019-03-02T05:12:52.980Z,39.11
2019-03-02T05:13:29.536Z,39.11
2019-03-02T05:14:05.514Z,39.01
2019-03-02T05:14:41.020Z,39.11
2019-03-02T05:15:17.639Z,39.11
2019-03-02T05:15:53.016Z,39.11
2019-03-02T05:16:28.802Z,39.01
2019-03-02T05:17:07.219Z,39.11
2019-03-02T05:17:44.080Z,39.11
2019-03-02T05:18:18.973Z,39.11
2019-03-02T05:18:54.751Z,39.11
2019-03-02T05:19:29.917Z,39.11
2019-03-02T05:20:06.063Z,39.11
2019-03-02T05:20:42.332Z,38.91
2019-03-02T05:21:14.361Z,39.11
2019-03-02T05:21:46.338Z,38.91
2019-03-02T05:22:19.693Z,39.11
2019-03-02T05:22:55.998Z,39.11
2019-03-02T05:23:31.503Z,39.11
2019-03-02T05:24:10.193Z,39.11
2019-03-02T05:24:44.425Z,39.11
2019-03-02T05:25:20.164Z,39.01
2019-03-02T05:25:55.442Z,39.11
2019-03-02T05:26:27.458Z,39.11
2019-03-02T05:26:59.442Z,39.01
2019-03-02T05:27:32.970Z,39.11
2019-03-02T05:28:08.111Z,39.01
2019-03-02T05:28:44.219Z,39.11
2019-03-02T05:29:18.513Z,39.11
2019-03-02T05:29:54.387Z,38.91
2019-03-02T05:30:31.649Z,39.11
2019-03-02T05:31:07.283Z,38.81
2019-03-02T05:31:42.036Z,39.01
2019-03-02T05:32:16.763Z,39.01
2019-03-02T05:32:52.666Z,39.11
2019-03-02T05:33:29.964Z,39.01
2019-03-02T05:34:05.880Z,38.81
2019-03-02T05:34:40.654Z,38.91
2019-03-02T05:35:16.798Z,39.11
2019-03-02T05:35:51.759Z,39.01
2019-03-02T05:36:28.147Z,39.01
2019-03-02T05:37:03.907Z,39.11
2019-03-02T05:37:40.685Z,39.11
2019-03-02T05:38:16.106Z,38.91
2019-03-02T05:38:48.119Z,38.81
2019-03-02T05:39:20.084Z,38.91
2019-03-02T05:39:54.113Z,39.01
2019-03-02T05:40:28.870Z,39.01
2019-03-02T05:41:03.957Z,39.01
2019-03-02T05:41:40.021Z,38.91
2019-03-02T05:42:14.590Z,38.91
2019-03-02T05:42:52.618Z,38.91
2019-03-02T05:43:28.289Z,38.81
2019-03-02T05:44:00.344Z,38.91
2019-03-02T05:44:32.350Z,39.01
2019-03-02T05:45:04.386Z,38.91
2019-03-02T05:45:36.375Z,38.72
2019-03-02T05:46:08.401Z,38.91
2019-03-02T05:46:40.389Z,38.91
2019-03-02T05:47:12.377Z,38.91
2019-03-02T05:47:44.356Z,38.91
2019-03-02T05:48:16.355Z,38.91
2019-03-02T05:48:48.328Z,38.72
2019-03-02T05:49:20.312Z,38.91
2019-03-02T05:49:55.972Z,38.91
2019-03-02T05:50:31.559Z,38.81
2019-03-02T05:51:06.686Z,38.91
2019-03-02T05:51:44.012Z,39.01
2019-03-02T05:52:18.694Z,38.72
2019-03-02T05:52:54.187Z,38.81
2019-03-02T05:53:30.968Z,38.91
2019-03-02T05:54:07.595Z,38.91
2019-03-02T05:54:42.423Z,38.81
2019-03-02T05:55:19.114Z,38.81
2019-03-02T05:55:54.947Z,38.81
2019-03-02T05:56:30.015Z,38.91
2019-03-02T05:57:05.465Z,38.91
2019-03-02T05:57:41.459Z,38.91
2019-03-02T05:58:17.125Z,38.81
2019-03-02T05:58:51.921Z,38.81
2019-03-02T05:59:27.851Z,39.01
2019-03-02T06:00:03.132Z,38.91
2019-03-02T06:00:38.962Z,38.91
2019-03-02T06:01:11.122Z,38.81
2019-03-02T06:01:43.104Z,38.91
2019-03-02T06:02:18.524Z,38.91
2019-03-02T06:02:50.504Z,38.81
2019-03-02T06:03:22.463Z,38.91
2019-03-02T06:03:54.515Z,38.91
2019-03-02T06:04:26.700Z,38.91
2019-03-02T06:04:58.680Z,38.91
2019-03-02T06:05:30.731Z,38.91
2019-03-02T06:06:02.720Z,39.01
2019-03-02T06:06:34.703Z,38.81
2019-03-02T06:07:06.676Z,39.01
2019-03-02T06:07:38.652Z,38.91
2019-03-02T06:08:10.631Z,38.91
2019-03-02T06:08:42.611Z,38.72
2019-03-02T06:09:15.314Z,38.72
2019-03-02T06:09:51.067Z,39.01
2019-03-02T06:10:26.366Z,38.91
2019-03-02T06:11:03.346Z,38.81
2019-03-02T06:11:40.583Z,38.81
2019-03-02T06:12:16.681Z,38.81
2019-03-02T06:12:53.005Z,38.91
2019-03-02T06:13:29.736Z,39.01
2019-03-02T06:14:01.804Z,38.81
2019-03-02T06:14:33.779Z,38.91
2019-03-02T06:15:08.660Z,39.01
2019-03-02T06:15:46.381Z,38.81
2019-03-02T06:16:21.840Z,38.81
2019-03-02T06:16:58.582Z,38.72
2019-03-02T06:17:33.872Z,38.91
2019-03-02T06:18:08.774Z,38.91
2019-03-02T06:18:45.335Z,38.91
2019-03-02T06:19:24.234Z,38.81
2019-03-02T06:20:00.240Z,38.81
2019-03-02T06:20:35.552Z,38.81
2019-03-02T06:21:11.928Z,38.91
2019-03-02T06:21:47.110Z,38.81
2019-03-02T06:22:21.932Z,38.91
2019-03-02T06:22:56.894Z,38.81
2019-03-02T06:23:30.731Z,38.81
2019-03-02T06:24:06.555Z,38.72
2019-03-02T06:24:42.021Z,38.72
2019-03-02T06:25:23.091Z,38.81
2019-03-02T06:25:58.778Z,38.91
2019-03-02T06:26:35.341Z,38.91
2019-03-02T06:27:11.761Z,38.91
2019-03-02T06:27:48.711Z,38.91
2019-03-02T06:28:23.738Z,38.81
2019-03-02T06:28:58.774Z,38.81
2019-03-02T06:29:33.594Z,38.91
2019-03-02T06:30:09.357Z,38.72
2019-03-02T06:30:45.022Z,38.72
2019-03-02T06:31:20.004Z,38.91
2019-03-02T06:31:54.959Z,38.72
2019-03-02T06:32:33.443Z,38.91
2019-03-02T06:33:09.397Z,38.81
2019-03-02T06:33:45.318Z,38.91
2019-03-02T06:34:20.666Z,38.72
2019-03-02T06:34:57.024Z,38.72
2019-03-02T06:35:32.799Z,38.72
2019-03-02T06:36:10.106Z,38.72
2019-03-02T06:36:46.017Z,38.72
2019-03-02T06:37:20.821Z,38.72
2019-03-02T06:37:57.353Z,38.81
2019-03-02T06:38:33.069Z,38.72
2019-03-02T06:39:09.108Z,38.81
2019-03-02T06:39:44.402Z,38.72
2019-03-02T06:40:23.580Z,38.72
2019-03-02T06:40:58.993Z,38.62
2019-03-02T06:41:34.079Z,38.72
2019-03-02T06:42:10.945Z,38.81
2019-03-02T06:42:46.715Z,38.72
2019-03-02T06:43:22.811Z,38.72
2019-03-02T06:43:58.372Z,38.72
2019-03-02T06:44:34.112Z,38.81
2019-03-02T06:45:10.082Z,38.72
2019-03-02T06:45:44.388Z,38.62
2019-03-02T06:46:23.321Z,38.72
2019-03-02T06:46:59.190Z,38.72
2019-03-02T06:47:34.289Z,38.72
2019-03-02T06:48:10.777Z,38.81
2019-03-02T06:48:45.900Z,38.81
2019-03-02T06:49:21.356Z,38.72
2019-03-02T06:50:00.187Z,38.81
2019-03-02T06:50:36.764Z,38.72
2019-03-02T06:51:12.711Z,38.72
2019-03-02T06:51:48.205Z,38.72
2019-03-02T06:52:26.227Z,38.72
2019-03-02T06:53:02.478Z,38.72
2019-03-02T06:53:37.981Z,38.72
2019-03-02T06:54:14.319Z,38.81
2019-03-02T06:54:49.557Z,39.2
2019-03-02T06:55:25.501Z,38.72
2019-03-02T06:56:01.834Z,38.72
2019-03-02T06:56:39.472Z,38.62
2019-03-02T06:57:15.029Z,38.72
2019-03-02T06:57:51.607Z,38.81
2019-03-02T06:58:29.662Z,38.72
2019-03-02T06:59:04.993Z,38.72
2019-03-02T06:59:40.091Z,38.72
2019-03-02T07:00:14.904Z,38.72
2019-03-02T07:00:49.707Z,38.81
2019-03-02T07:01:26.337Z,38.81
2019-03-02T07:02:00.838Z,38.72
2019-03-02T07:02:35.854Z,38.81
2019-03-02T07:03:11.151Z,38.81
2019-03-02T07:03:46.761Z,39.01
2019-03-02T07:04:23.097Z,39.01
2019-03-02T07:04:58.014Z,38.62
2019-03-02T07:05:37.139Z,38.72
2019-03-02T07:06:13.017Z,38.72
2019-03-02T07:06:47.631Z,39.01
2019-03-02T07:07:22.814Z,38.81
2019-03-02T07:07:58.212Z,39.11
2019-03-02T07:08:36.218Z,39.01
2019-03-02T07:09:10.677Z,39.01
2019-03-02T07:09:46.153Z,39.01
2019-03-02T07:10:23.482Z,38.81
2019-03-02T07:10:58.864Z,39.01
2019-03-02T07:11:34.880Z,38.81
2019-03-02T07:12:10.273Z,38.81
2019-03-02T07:12:46.935Z,38.81
2019-03-02T07:13:22.728Z,38.91
2019-03-02T07:13:57.162Z,38.91
2019-03-02T07:14:33.231Z,38.81
2019-03-02T07:15:09.284Z,38.91
2019-03-02T07:15:45.193Z,38.81
2019-03-02T07:16:20.816Z,38.91
2019-03-02T07:16:57.176Z,38.81
2019-03-02T07:17:31.715Z,38.81
2019-03-02T07:18:08.163Z,38.72
2019-03-02T07:18:43.140Z,38.91
2019-03-02T07:19:17.674Z,38.62
2019-03-02T07:19:52.953Z,39.01
2019-03-02T07:20:28.243Z,39.01
2019-03-02T07:21:06.498Z,38.72
2019-03-02T07:21:42.837Z,38.91
2019-03-02T07:22:17.961Z,38.81
2019-03-02T07:22:53.232Z,38.81
2019-03-02T07:23:28.772Z,38.72
2019-03-02T07:24:00.789Z,38.81
2019-03-02T07:24:32.785Z,38.81
2019-03-02T07:25:06.061Z,38.81
2019-03-02T07:25:44.283Z,38.72
2019-03-02T07:26:20.904Z,38.72
2019-03-02T07:26:55.495Z,38.53
2019-03-02T07:27:30.485Z,38.81
2019-03-02T07:28:07.408Z,38.81
2019-03-02T07:28:43.025Z,38.72
2019-03-02T07:29:18.759Z,38.81
2019-03-02T07:29:55.072Z,38.91
2019-03-02T07:30:27.135Z,38.81
2019-03-02T07:30:59.148Z,38.72
2019-03-02T07:31:31.138Z,38.74
2019-03-02T07:32:03.123Z,38.74
2019-03-02T07:32:35.104Z,38.72
2019-03-02T07:33:07.808Z,38.72
2019-03-02T07:33:39.886Z,38.72
2019-03-02T07:34:11.877Z,38.83
2019-03-02T07:34:44.956Z,38.72
2019-03-02T07:35:20.567Z,38.81
2019-03-02T07:35:56.761Z,38.74
2019-03-02T07:36:34.907Z,38.81
2019-03-02T07:37:10.232Z,38.81
2019-03-02T07:37:45.480Z,38.72
2019-03-02T07:38:21.605Z,38.72
2019-03-02T07:38:57.386Z,38.72
2019-03-02T07:39:34.118Z,38.53
2019-03-02T07:40:10.163Z,38.81
2019-03-02T07:40:47.095Z,38.62
2019-03-02T07:41:23.189Z,38.72
2019-03-02T07:41:58.853Z,38.72
2019-03-02T07:42:34.825Z,38.81
2019-03-02T07:43:10.546Z,38.83
2019-03-02T07:43:47.610Z,38.93
2019-03-02T07:44:23.387Z,38.93
2019-03-02T07:44:59.354Z,38.74
2019-03-02T07:45:36.606Z,38.74
2019-03-02T07:46:12.733Z,38.83
2019-03-02T07:46:49.130Z,38.72
2019-03-02T07:47:25.054Z,38.72
2019-03-02T07:48:01.542Z,38.93
2019-03-02T07:48:37.647Z,38.64